Time;durP1;ratioP1;P1;durP2;ratioP2;P2;SDS_P1;SDS_P2;PMS_P1;PMS_P2;Temp;Humidity;BMP_temperature;BMP_pressure;BME280_temperature;BME280_humidity;BME280_pressure;Samples;Min_cycle;Max_cycle;Signal;HPM_P1;HPM_P2
2021/08/23 00:00:27;;;;;;;9.00;5.53;;;;;;;18.30;100.00;101150.41;5073546;28;20440;-74
2021/08/23 00:02:53;;;;;;;9.33;6.43;;;;;;;18.31;100.00;101149.25;5073345;28;20485;-73
2021/08/23 00:05:20;;;;;;;7.60;5.27;;;;;;;18.35;100.00;101150.16;5079966;28;20441;-74
2021/08/23 00:07:46;;;;;;;9.97;6.10;;;;;;;18.36;100.00;101157.25;5073527;28;20446;-73
2021/08/23 00:10:14;;;;;;;10.97;6.10;;;;;;;18.37;100.00;101153.41;5073071;28;20444;-73
2021/08/23 00:12:41;;;;;;;13.83;6.43;;;;;;;18.40;100.00;101154.63;5073277;28;20441;-74
2021/08/23 00:15:10;;;;;;;7.27;5.00;;;;;;;18.31;100.00;101143.75;5072091;28;20977;-74
2021/08/23 00:17:36;;;;;;;10.33;6.27;;;;;;;18.34;100.00;101143.09;5073187;28;20441;-74
2021/08/23 00:20:04;;;;;;;13.13;6.40;;;;;;;18.29;100.00;101150.75;5073140;28;20441;-74
2021/08/23 00:22:33;;;;;;;7.67;5.77;;;;;;;18.30;100.00;101142.16;5073073;28;20527;-74
2021/08/23 00:25:01;;;;;;;10.43;5.57;;;;;;;18.31;100.00;101138.28;5071933;28;20477;-73
2021/08/23 00:27:27;;;;;;;7.80;5.57;;;;;;;18.33;100.00;101136.00;5072437;28;20503;-74
2021/08/23 00:29:54;;;;;;;7.63;5.87;;;;;;;18.31;100.00;101138.28;5072948;28;20437;-73
2021/08/23 00:32:23;;;;;;;9.53;5.10;;;;;;;18.33;100.00;101140.69;5073049;28;20437;-73
2021/08/23 00:34:50;;;;;;;10.80;7.40;;;;;;;18.31;100.00;101132.78;5072020;28;20515;-74
2021/08/23 00:37:17;;;;;;;9.97;6.10;;;;;;;18.29;100.00;101132.34;5072955;28;20445;-73
2021/08/23 00:39:44;;;;;;;9.07;5.70;;;;;;;18.23;100.00;101132.88;5072893;28;20448;-73
2021/08/23 00:42:10;;;;;;;8.40;5.33;;;;;;;18.22;100.00;101126.59;5072760;28;20477;-73
2021/08/23 00:44:38;;;;;;;8.70;6.50;;;;;;;18.11;100.00;101130.94;5035433;28;1043088;-74
2021/08/23 00:47:06;;;;;;;6.70;5.43;;;;;;;18.04;100.00;101127.94;5073822;28;20220;-73
2021/08/23 00:49:34;;;;;;;8.97;6.23;;;;;;;18.08;100.00;101128.84;5073267;28;20962;-73
2021/08/23 00:52:03;;;;;;;7.37;4.73;;;;;;;18.09;100.00;101130.44;5073182;28;20441;-73
2021/08/23 00:54:30;;;;;;;10.17;6.07;;;;;;;18.13;100.00;101128.63;5072682;28;20465;-74
2021/08/23 00:56:57;;;;;;;10.37;7.10;;;;;;;18.15;100.00;101135.41;5073268;28;20481;-73
2021/08/23 00:59:23;;;;;;;10.67;7.30;;;;;;;18.16;100.00;101127.97;5073450;28;20441;-73
2021/08/23 01:02:00;;;;;;;10.67;7.73;;;;;;;18.19;100.00;101131.97;5073285;28;20491;-73
2021/08/23 01:04:33;;;;;;;11.70;7.33;;;;;;;18.14;100.00;101131.03;5072603;28;20456;-74
2021/08/23 01:07:03;;;;;;;8.50;5.07;;;;;;;18.17;100.00;101135.06;5072921;28;20899;-73
2021/08/23 01:09:33;;;;;;;7.90;5.70;;;;;;;18.20;100.00;101136.31;5073252;28;20468;-73
2021/08/23 01:12:00;;;;;;;11.33;6.70;;;;;;;18.13;100.00;101142.34;5073339;28;20440;-73
2021/08/23 01:14:27;;;;;;;9.20;6.57;;;;;;;18.17;100.00;101147.97;5072441;28;20461;-73
2021/08/23 01:16:53;;;;;;;6.57;5.47;;;;;;;18.20;100.00;101139.88;5072923;28;20449;-74
2021/08/23 01:19:23;;;;;;;13.33;6.80;;;;;;;18.23;100.00;101139.16;5073247;28;20851;-74
2021/08/23 01:21:52;;;;;;;8.43;5.57;;;;;;;18.24;100.00;101129.00;5073163;28;20449;-73
2021/08/23 01:24:20;;;;;;;6.50;5.07;;;;;;;18.27;100.00;101137.34;5072520;28;20465;-73
2021/08/23 01:26:50;;;;;;;9.27;6.67;;;;;;;18.29;100.00;101129.59;5072466;28;20930;-74
2021/08/23 01:29:21;;;;;;;6.53;4.97;;;;;;;18.30;100.00;101141.38;5073103;28;20444;-73
2021/08/23 01:31:52;;;;;;;14.30;6.70;;;;;;;18.25;100.00;101139.66;5072723;28;20834;-73
2021/08/23 01:34:21;;;;;;;6.90;5.80;;;;;;;18.26;100.00;101141.25;5072398;28;20501;-73
2021/08/23 01:36:48;;;;;;;11.20;6.07;;;;;;;18.20;100.00;101145.34;5072196;28;21005;-73
2021/08/23 01:39:15;;;;;;;12.43;6.07;;;;;;;18.20;100.00;101131.63;5073508;28;20434;-73
2021/08/23 01:41:41;;;;;;;6.17;4.80;;;;;;;18.24;100.00;101135.31;5077013;28;20449;-74
2021/08/23 01:44:08;;;;;;;8.03;5.30;;;;;;;18.27;100.00;101136.56;5076176;28;20503;-73
2021/08/23 01:46:35;;;;;;;8.17;5.27;;;;;;;18.23;100.00;101130.94;5076536;28;20457;-73
2021/08/23 01:49:03;;;;;;;9.53;5.63;;;;;;;18.24;100.00;101134.47;5076929;28;20441;-73
2021/08/23 01:51:31;;;;;;;6.07;5.30;;;;;;;18.21;100.00;101138.72;5076840;28;20448;-73
2021/08/23 01:53:58;;;;;;;7.47;6.00;;;;;;;18.12;100.00;101136.06;5076419;28;20465;-73
2021/08/23 01:56:25;;;;;;;8.30;5.67;;;;;;;18.10;100.00;101132.84;5076183;28;20452;-74
2021/08/23 01:58:51;;;;;;;7.30;5.67;;;;;;;18.01;100.00;101142.31;5076777;28;20444;-73
2021/08/23 02:01:18;;;;;;;9.10;4.50;;;;;;;18.08;100.00;101134.34;5076750;28;20441;-73
2021/08/23 02:03:44;;;;;;;7.57;5.90;;;;;;;17.98;100.00;101134.78;5083184;28;20489;-74
2021/08/23 02:06:11;;;;;;;11.90;6.93;;;;;;;18.01;100.00;101140.34;5075758;28;21129;-74
2021/08/23 02:08:38;;;;;;;8.50;5.97;;;;;;;17.99;100.00;101136.38;5075471;28;20442;-74
2021/08/23 02:11:05;;;;;;;7.53;5.13;;;;;;;17.99;100.00;101141.84;5076454;28;20448;-72
2021/08/23 02:13:31;;;;;;;9.97;6.27;;;;;;;17.96;100.00;101143.31;5076306;28;20457;-73
2021/08/23 02:15:58;;;;;;;11.83;6.00;;;;;;;17.86;100.00;101139.06;5076385;28;20449;-72
2021/08/23 02:18:24;;;;;;;9.50;5.70;;;;;;;17.67;100.00;101135.97;5075525;28;20441;-73
2021/08/23 02:20:51;;;;;;;7.57;4.60;;;;;;;17.60;100.00;101138.44;5076326;28;20445;-72
2021/08/23 02:23:17;;;;;;;8.10;4.90;;;;;;;17.56;100.00;101129.28;5076101;28;20481;-72
2021/08/23 02:25:45;;;;;;;7.53;5.53;;;;;;;17.62;100.00;101138.94;5076040;28;20441;-72
2021/08/23 02:28:12;;;;;;;6.03;4.50;;;;;;;17.61;100.00;101142.78;5076029;28;20437;-73
2021/08/23 02:30:39;;;;;;;5.60;3.37;;;;;;;17.68;100.00;101136.78;5075963;28;20464;-72
2021/08/23 02:33:06;;;;;;;8.70;4.53;;;;;;;17.65;100.00;101135.50;5074769;28;21045;-72
2021/08/23 02:35:32;;;;;;;5.73;3.87;;;;;;;17.68;100.00;101145.81;5075660;28;20457;-72
2021/08/23 02:37:59;;;;;;;6.00;4.10;;;;;;;17.69;100.00;101146.59;5075826;28;20926;-73
2021/08/23 02:40:25;;;;;;;5.90;3.97;;;;;;;17.54;100.00;101146.06;5076005;28;20441;-72
2021/08/23 02:42:53;;;;;;;5.87;4.20;;;;;;;17.48;100.00;101141.13;5075076;28;20488;-73
2021/08/23 02:45:20;;;;;;;9.20;4.57;;;;;;;17.38;100.00;101143.13;5075371;28;20477;-70
2021/08/23 02:47:46;;;;;;;5.10;3.37;;;;;;;17.48;100.00;101152.06;5075831;28;21016;-71
2021/08/23 02:50:13;;;;;;;3.63;2.97;;;;;;;17.52;100.00;101153.00;5075164;28;20930;-71
2021/08/23 02:52:39;;;;;;;3.30;2.63;;;;;;;17.54;100.00;101158.97;5074594;28;20789;-71
2021/08/23 02:55:07;;;;;;;3.40;2.77;;;;;;;17.50;100.00;101160.78;5075678;28;20468;-71
2021/08/23 02:57:34;;;;;;;3.50;2.67;;;;;;;17.43;100.00;101168.72;5075653;28;20445;-72
2021/08/23 03:00:03;;;;;;;3.70;3.07;;;;;;;17.36;100.00;101169.25;5075646;28;20453;-71
2021/08/23 03:02:30;;;;;;;2.53;2.27;;;;;;;17.34;100.00;101171.50;5074617;28;20430;-71
2021/08/23 03:04:56;;;;;;;3.50;2.77;;;;;;;17.35;100.00;101165.72;5075470;28;20488;-71
2021/08/23 03:07:23;;;;;;;3.50;2.07;;;;;;;17.32;100.00;101169.09;5075166;28;20852;-71
2021/08/23 03:09:49;;;;;;;3.30;2.30;;;;;;;17.30;100.00;101170.56;5074689;28;20445;-72
2021/08/23 03:12:16;;;;;;;2.70;1.80;;;;;;;17.22;100.00;101171.41;5075109;28;20441;-71
2021/08/23 03:14:42;;;;;;;3.53;2.63;;;;;;;17.18;100.00;101173.22;5075316;28;20511;-71
2021/08/23 03:17:10;;;;;;;3.60;2.60;;;;;;;17.14;100.00;101162.94;5075308;28;20452;-71
2021/08/23 03:19:37;;;;;;;2.80;2.30;;;;;;;17.11;100.00;101166.34;5074425;28;20441;-71
2021/08/23 03:22:04;;;;;;;2.80;2.50;;;;;;;17.13;100.00;101174.19;5075256;28;20445;-71
2021/08/23 03:24:30;;;;;;;3.03;2.53;;;;;;;17.17;100.00;101172.41;5074987;28;20488;-72
2021/08/23 03:26:57;;;;;;;2.80;2.53;;;;;;;17.12;100.00;101170.66;5075053;28;20445;-72
2021/08/23 03:29:23;;;;;;;4.43;3.13;;;;;;;17.17;100.00;101182.56;5074107;28;20449;-71
2021/08/23 03:31:50;;;;;;;3.77;2.70;;;;;;;17.11;100.00;101177.28;5074972;28;20429;-72
2021/08/23 03:34:18;;;;;;;3.20;2.80;;;;;;;17.06;100.00;101171.19;5074957;28;20468;-72
2021/08/23 03:36:46;;;;;;;5.00;3.60;;;;;;;17.10;100.00;101172.94;5074816;28;20432;-72
2021/08/23 03:39:13;;;;;;;4.63;3.63;;;;;;;17.01;100.00;101179.59;5074054;28;20477;-72
2021/08/23 03:41:41;;;;;;;3.83;3.37;;;;;;;17.06;100.00;101177.47;5074496;28;20930;-72
2021/08/23 03:44:07;;;;;;;4.77;2.93;;;;;;;17.10;100.00;101185.84;5074389;28;20489;-72
2021/08/23 03:46:34;;;;;;;6.10;3.70;;;;;;;17.07;100.00;101184.53;5074631;28;20471;-71
2021/08/23 03:49:01;;;;;;;5.30;3.43;;;;;;;17.04;100.00;101178.91;5073863;28;20437;-72
2021/08/23 03:51:29;;;;;;;7.17;3.73;;;;;;;17.04;100.00;101173.44;5074599;28;20441;-72
2021/08/23 03:53:56;;;;;;;5.40;3.70;;;;;;;17.00;100.00;101177.97;5074520;28;20462;-71
2021/08/23 03:56:22;;;;;;;10.00;4.57;;;;;;;16.96;100.00;101177.84;5074128;28;20823;-71
2021/08/23 03:58:48;;;;;;;7.47;4.17;;;;;;;16.96;100.00;101177.84;5079687;28;20442;-73
2021/08/23 04:01:15;;;;;;;8.10;4.67;;;;;;;16.94;100.00;101190.25;5075163;28;20941;-72
2021/08/23 04:03:41;;;;;;;7.00;5.03;;;;;;;16.89;100.00;101183.81;5073395;28;20492;-72
2021/08/23 04:06:10;;;;;;;5.40;4.23;;;;;;;16.89;100.00;101199.44;5074319;28;20456;-71
2021/08/23 04:08:38;;;;;;;8.50;5.10;;;;;;;16.91;100.00;101205.41;5073421;28;20445;-72
2021/08/23 04:11:05;;;;;;;7.50;4.97;;;;;;;16.86;100.00;101205.56;5073996;28;20953;-72
2021/08/23 04:13:31;;;;;;;8.53;5.27;;;;;;;16.75;100.00;101202.41;5073897;28;21039;-72
2021/08/23 04:16:00;;;;;;;5.87;4.23;;;;;;;16.84;100.00;101207.84;5074179;28;20446;-71
2021/08/23 04:18:26;;;;;;;5.97;4.10;;;;;;;16.74;100.00;101208.22;5073235;28;20441;-72
2021/08/23 04:20:53;;;;;;;5.33;4.30;;;;;;;16.58;100.00;101213.38;5074040;28;20445;-72
2021/08/23 04:23:19;;;;;;;7.33;4.53;;;;;;;16.64;100.00;101223.00;5073846;28;20481;-72
2021/08/23 04:25:47;;;;;;;5.50;4.23;;;;;;;16.65;100.00;101224.63;5073866;28;20437;-72
2021/08/23 04:28:14;;;;;;;4.57;3.20;;;;;;;16.46;100.00;101218.69;5072966;28;20449;-72
2021/08/23 04:30:40;;;;;;;4.93;3.53;;;;;;;16.49;100.00;101224.31;5073615;28;20450;-72
2021/08/23 04:33:07;;;;;;;4.63;3.70;;;;;;;16.52;100.00;101225.63;5073852;28;20449;-72
2021/08/23 04:35:33;;;;;;;3.30;3.00;;;;;;;16.49;100.00;101232.53;5073654;28;20461;-71
2021/08/23 04:38:00;;;;;;;3.17;2.87;;;;;;;16.42;100.00;101236.88;5073250;28;20441;-72
2021/08/23 04:40:26;;;;;;;2.87;2.57;;;;;;;16.42;100.00;101242.34;5073016;28;20855;-75
2021/08/23 04:42:55;;;;;;;3.67;2.93;;;;;;;16.37;100.00;101235.13;5073701;28;20437;-74
2021/08/23 04:45:22;;;;;;;4.70;3.50;;;;;;;16.33;100.00;101236.88;5073221;28;20574;-75
2021/08/23 04:47:48;;;;;;;3.43;2.30;;;;;;;16.30;100.00;101243.03;5073278;28;20445;-75
2021/08/23 04:50:15;;;;;;;3.30;2.20;;;;;;;16.28;100.00;101243.31;5073008;28;20446;-75
2021/08/23 04:52:42;;;;;;;4.47;2.80;;;;;;;16.23;100.00;101240.75;5073567;28;20441;-75
2021/08/23 04:55:09;;;;;;;3.27;2.70;;;;;;;16.23;100.00;101246.22;5074781;28;20497;-75
2021/08/23 04:57:36;;;;;;;4.40;2.73;;;;;;;16.20;100.00;101249.59;5073193;28;20514;-75
2021/08/23 05:00:07;;;;;;;3.33;2.13;;;;;;;16.00;100.00;101250.25;5072677;28;20499;-75
2021/08/23 05:02:34;;;;;;;2.23;1.90;;;;;;;15.93;100.00;101255.41;5073354;28;20461;-75
2021/08/23 05:05:00;;;;;;;2.30;2.10;;;;;;;15.91;100.00;101246.72;5073247;28;20484;-75
2021/08/23 05:07:27;;;;;;;3.87;2.47;;;;;;;15.95;100.00;101258.63;5073004;28;20930;-75
2021/08/23 05:09:53;;;;;;;2.97;2.20;;;;;;;16.03;100.00;101258.63;5071952;28;20933;-76
2021/08/23 05:12:20;;;;;;;4.33;2.80;;;;;;;16.10;100.00;101260.88;5073102;28;20445;-75
2021/08/23 05:14:46;;;;;;;2.63;2.17;;;;;;;16.15;100.00;101266.16;5073115;28;20458;-75
2021/08/23 05:17:14;;;;;;;3.93;2.53;;;;;;;16.14;100.00;101264.56;5072890;28;20965;-76
2021/08/23 05:19:40;;;;;;;2.90;2.43;;;;;;;16.14;100.00;101270.03;5072098;28;21048;-75
2021/08/23 05:22:07;;;;;;;2.43;1.93;;;;;;;16.19;100.00;101275.34;5072922;28;20930;-75
2021/08/23 05:24:33;;;;;;;3.20;2.20;;;;;;;16.14;100.00;101270.03;5072222;28;20485;-69
2021/08/23 05:27:00;;;;;;;3.03;2.63;;;;;;;16.13;100.00;101276.63;5073214;28;20449;-72
2021/08/23 05:29:26;;;;;;;2.20;1.93;;;;;;;15.97;100.00;101273.56;5072141;28;20437;-71
2021/08/23 05:31:53;;;;;;;3.33;2.23;;;;;;;15.98;100.00;101283.38;5073079;28;20445;-71
2021/08/23 05:34:20;;;;;;;3.10;2.30;;;;;;;16.01;100.00;101279.19;5072468;28;20465;-71
2021/08/23 05:36:47;;;;;;;3.47;2.20;;;;;;;15.99;100.00;101286.94;5072811;28;20476;-72
2021/08/23 05:39:13;;;;;;;7.47;2.40;;;;;;;16.03;100.00;101282.44;5073220;28;20943;-71
2021/08/23 05:41:40;;;;;;;2.37;2.00;;;;;;;16.05;100.00;101291.09;5073038;28;20445;-70
2021/08/23 05:44:06;;;;;;;3.40;2.70;;;;;;;16.07;100.00;101291.56;5072187;28;20493;-71
2021/08/23 05:46:32;;;;;;;6.47;3.00;;;;;;;16.02;100.00;101284.31;5072471;28;20418;-71
2021/08/23 05:48:59;;;;;;;4.20;2.30;;;;;;;15.99;100.00;101293.19;5072997;28;20452;-70
2021/08/23 05:51:27;;;;;;;2.00;1.77;;;;;;;15.96;100.00;101298.47;5073087;28;20450;-70
2021/08/23 05:53:53;;;;;;;3.20;2.27;;;;;;;16.02;100.00;101291.72;5072328;28;20828;-71
2021/08/23 05:56:19;;;;;;;2.63;2.00;;;;;;;16.11;100.00;101298.00;5079344;28;20440;-70
2021/08/23 05:58:46;;;;;;;2.63;2.40;;;;;;;16.17;100.00;101293.19;5072952;28;20442;-71
2021/08/23 06:01:12;;;;;;;3.30;3.00;;;;;;;16.23;100.00;101295.44;5072564;28;20466;-71
2021/08/23 06:03:39;;;;;;;3.60;2.53;;;;;;;16.24;100.00;101297.03;5072564;28;20465;-70
2021/08/23 06:06:06;;;;;;;5.37;2.10;;;;;;;16.21;100.00;101300.44;5071782;28;20452;-70
2021/08/23 06:08:36;;;;;;;5.73;2.70;;;;;;;16.22;100.00;101302.03;5072708;28;20464;-70
2021/08/23 06:11:03;;;;;;;6.03;2.93;;;;;;;16.14;100.00;101303.63;5073191;28;20466;-70
2021/08/23 06:13:29;;;;;;;2.93;2.60;;;;;;;16.22;100.00;101307.50;5072604;28;20468;-70
2021/08/23 06:15:57;;;;;;;3.10;2.80;;;;;;;16.17;100.00;101315.88;5071347;28;20824;-70
2021/08/23 06:18:24;;;;;;;2.40;2.20;;;;;;;16.18;100.00;101303.00;5072577;28;20441;-70
2021/08/23 06:20:51;;;;;;;3.00;2.00;;;;;;;16.18;100.00;101311.22;5072605;28;20441;-69
2021/08/23 06:23:18;;;;;;;2.80;2.10;;;;;;;16.11;100.00;101311.66;5072550;28;20536;-70
2021/08/23 06:25:46;;;;;;;2.50;1.80;;;;;;;16.01;100.00;101314.72;5072771;28;20477;-69
2021/08/23 06:28:13;;;;;;;3.83;2.50;;;;;;;16.02;100.00;101314.38;5075871;28;20902;-68
2021/08/23 06:30:39;;;;;;;4.67;2.40;;;;;;;16.08;100.00;101312.31;5076125;28;20445;-69
2021/08/23 06:33:06;;;;;;;1.77;1.50;;;;;;;16.11;100.00;101319.88;5075786;28;20939;-69
2021/08/23 06:35:32;;;;;;;2.37;2.17;;;;;;;16.23;100.00;101319.25;5075035;28;20515;-69
2021/08/23 06:37:58;;;;;;;3.63;1.63;;;;;;;16.24;100.00;101320.84;5076003;28;20445;-69
2021/08/23 06:40:25;;;;;;;3.37;2.80;;;;;;;16.29;100.00;101324.25;5075969;28;20441;-69
2021/08/23 06:42:53;;;;;;;4.83;2.57;;;;;;;16.36;100.00;101326.47;5075869;28;20449;-69
2021/08/23 06:45:19;;;;;;;7.80;1.97;;;;;;;16.37;100.00;101328.09;5074501;28;20489;-69
2021/08/23 06:47:45;;;;;;;5.63;2.60;;;;;;;16.40;100.00;101325.50;5075742;28;20441;-69
2021/08/23 06:50:12;;;;;;;2.27;2.00;;;;;;;16.46;100.00;101328.88;5075738;28;20454;-69
2021/08/23 06:52:40;;;;;;;2.40;2.17;;;;;;;16.37;100.00;101344.50;5075573;28;20441;-69
2021/08/23 06:55:08;;;;;;;2.57;2.37;;;;;;;16.39;100.00;101337.59;5074505;28;20495;-69
2021/08/23 06:57:34;;;;;;;3.60;2.20;;;;;;;16.45;100.00;101351.09;5075609;28;20454;-69
2021/08/23 07:00:02;;;;;;;2.77;2.50;;;;;;;16.42;100.00;101357.19;5075639;28;20486;-72
2021/08/23 07:02:29;;;;;;;7.80;2.70;;;;;;;16.45;100.00;101351.09;5075606;28;20457;-71
2021/08/23 07:04:55;;;;;;;3.90;3.07;;;;;;;16.51;100.00;101349.78;5074569;28;20481;-70
2021/08/23 07:07:22;;;;;;;1.87;1.77;;;;;;;16.44;100.00;101353.03;5075462;28;20445;-73
2021/08/23 07:09:48;;;;;;;2.47;1.80;;;;;;;16.38;100.00;101352.41;5075042;28;20998;-74
2021/08/23 07:12:15;;;;;;;3.93;2.93;;;;;;;16.31;100.00;101357.53;5075340;28;20449;-75
2021/08/23 07:14:41;;;;;;;1.67;1.33;;;;;;;16.38;100.00;101359.78;5074312;28;20461;-75
2021/08/23 07:17:09;;;;;;;2.43;1.80;;;;;;;16.38;100.00;101360.59;5075255;28;20456;-74
2021/08/23 07:19:36;;;;;;;3.43;2.30;;;;;;;16.22;100.00;101355.91;5075270;28;20444;-74
2021/08/23 07:22:03;;;;;;;2.57;2.20;;;;;;;16.22;100.00;101362.19;5074927;28;20963;-73
2021/08/23 07:24:29;;;;;;;2.67;2.00;;;;;;;16.34;100.00;101365.09;5074360;28;20895;-74
2021/08/23 07:26:56;;;;;;;4.40;2.60;;;;;;;16.45;100.00;101371.03;5074831;28;20445;-73
2021/08/23 07:29:24;;;;;;;3.90;2.07;;;;;;;16.60;100.00;101369.75;5075074;28;20441;-73
2021/08/23 07:31:51;;;;;;;3.60;2.20;;;;;;;16.50;100.00;101378.28;5075067;28;20445;-73
2021/08/23 07:34:18;;;;;;;2.80;2.00;;;;;;;16.60;100.00;101372.47;5074344;28;20457;-73
2021/08/23 07:36:45;;;;;;;3.03;2.13;;;;;;;16.73;100.00;101381.69;5073278;28;20857;-73
2021/08/23 07:39:11;;;;;;;4.23;2.33;;;;;;;16.85;100.00;101385.38;5074648;28;20448;-73
2021/08/23 07:41:38;;;;;;;2.90;2.07;;;;;;;16.96;100.00;101385.06;5074830;28;20441;-73
2021/08/23 07:44:04;;;;;;;3.03;1.90;;;;;;;17.00;100.00;101386.00;5073881;28;21066;-72
2021/08/23 07:46:31;;;;;;;2.93;1.90;;;;;;;16.99;100.00;101389.88;5074160;28;20464;-73
2021/08/23 07:48:57;;;;;;;7.40;2.60;;;;;;;17.14;100.00;101397.59;5074686;28;20452;-73
2021/08/23 07:51:25;;;;;;;4.70;1.83;;;;;;;17.28;100.00;101397.38;5081237;28;20433;-74
2021/08/23 07:53:51;;;;;;;3.90;2.50;;;;;;;17.27;100.00;101395.78;5065530;28;20462;-74
2021/08/23 07:56:18;;;;;;;2.50;1.50;;;;;;;17.18;100.00;101406.75;5064270;28;20441;-74
2021/08/23 07:58:44;;;;;;;4.83;2.70;;;;;;;17.16;100.00;101406.25;5064779;28;20439;-73
2021/08/23 08:01:11;;;;;;;2.53;1.30;;;;;;;16.93;100.00;101408.41;5062445;28;20803;-73
2021/08/23 08:03:38;;;;;;;1.97;1.40;;;;;;;16.96;100.00;101413.22;5063621;28;20461;-72
2021/08/23 08:06:04;;;;;;;2.47;1.60;;;;;;;17.10;100.00;101415.78;5064256;28;20493;-73
2021/08/23 08:08:32;;;;;;;1.50;1.20;;;;;;;17.02;100.00;101413.84;5062629;28;20461;-70
2021/08/23 08:10:59;;;;;;;1.33;1.00;;;;;;;16.92;100.00;101428.69;5063696;28;20434;-71
2021/08/23 08:13:27;;;;;;;2.17;1.80;;;;;;;16.87;100.00;101424.19;5062919;28;20488;-71
2021/08/23 08:15:53;;;;;;;1.77;1.53;;;;;;;16.72;100.00;101429.28;5053835;28;20949;-73
2021/08/23 08:18:19;;;;;;;2.30;1.80;;;;;;;16.75;100.00;101429.50;5054099;28;20636;-74
2021/08/23 08:20:46;;;;;;;2.13;1.50;;;;;;;16.82;100.00;101427.09;5053244;28;20446;-72
2021/08/23 08:23:13;;;;;;;2.33;1.93;;;;;;;16.78;100.00;101437.06;5053955;28;20442;-72
2021/08/23 08:25:41;;;;;;;2.90;1.73;;;;;;;16.75;100.00;101429.50;5053038;28;21010;-72
2021/08/23 08:28:07;;;;;;;2.40;1.40;;;;;;;16.90;100.00;101436.41;5054007;28;20446;-71
2021/08/23 08:30:33;;;;;;;1.70;1.50;;;;;;;16.95;100.00;101438.97;5053959;28;20445;-72
2021/08/23 08:33:00;;;;;;;2.53;1.83;;;;;;;17.02;100.00;101441.22;5053831;28;20454;-72
2021/08/23 08:35:26;;;;;;;3.73;1.90;;;;;;;16.97;100.00;101444.94;5053078;28;20454;-71
2021/08/23 08:37:53;;;;;;;1.53;1.40;;;;;;;17.11;100.00;101447.50;5053473;28;20816;-69
2021/08/23 08:40:19;;;;;;;1.50;1.03;;;;;;;17.14;100.00;101455.06;5053725;28;20810;-69
2021/08/23 08:42:47;;;;;;;1.87;1.33;;;;;;;17.11;100.00;101452.97;5053534;28;20438;-69
2021/08/23 08:45:14;;;;;;;2.20;1.37;;;;;;;17.17;100.00;101446.19;5052314;28;20486;-70
2021/08/23 08:47:42;;;;;;;2.80;1.43;;;;;;;17.21;100.00;101457.31;5053284;28;20801;-70
2021/08/23 08:50:11;;;;;;;1.60;1.10;;;;;;;17.36;100.00;101454.88;5053455;28;20530;-69
2021/08/23 08:52:39;;;;;;;4.10;1.57;;;;;;;17.56;100.00;101460.78;5053120;28;20962;-69
2021/08/23 08:55:06;;;;;;;2.10;1.30;;;;;;;17.63;100.00;101466.56;5052633;28;20485;-69
2021/08/23 08:57:33;;;;;;;1.50;1.40;;;;;;;17.63;100.00;101463.84;5053432;28;20437;-70
2021/08/23 09:00:01;;;;;;;2.53;1.97;;;;;;;17.66;100.00;101463.16;5053370;28;20445;-69
2021/08/23 09:02:27;;;;;;;2.60;1.50;;;;;;;17.74;100.00;101467.03;5053393;28;20437;-69
2021/08/23 09:04:54;;;;;;;2.00;1.43;;;;;;;17.78;100.00;101460.56;5052039;28;21019;-70
2021/08/23 09:07:20;;;;;;;2.47;1.70;;;;;;;17.87;100.00;101457.81;5053347;28;20576;-69
2021/08/23 09:09:47;;;;;;;4.90;1.60;;;;;;;17.87;100.00;101477.00;5053170;28;20446;-70
2021/08/23 09:12:15;;;;;;;3.03;1.50;;;;;;;17.92;100.00;101473.25;5053260;28;20474;-70
2021/08/23 09:14:50;;;;;;;6.30;1.40;;;;;;;18.11;100.00;101479.16;5051832;28;20516;-69
2021/08/23 09:17:21;;;;;;;2.13;1.30;;;;;;;18.27;99.56;101476.63;5051215;28;20433;-70
2021/08/23 09:19:57;;;;;;;5.43;1.80;;;;;;;18.39;99.77;101477.53;5053134;28;20438;-69
2021/08/23 09:22:25;;;;;;;2.70;1.60;;;;;;;18.37;98.74;101470.75;5064662;28;20457;-70
2021/08/23 09:24:52;;;;;;;1.97;1.60;;;;;;;18.48;98.09;101474.75;5072122;28;20496;-70
2021/08/23 09:27:19;;;;;;;2.10;1.70;;;;;;;18.65;97.94;101482.88;5073127;28;20453;-69
2021/08/23 09:29:59;;;;;;;2.23;1.90;;;;;;;18.66;97.67;101480.91;5073067;28;20445;-69
2021/08/23 09:32:29;;;;;;;2.17;1.37;;;;;;;18.59;94.61;101486.13;5073154;28;20470;-69
2021/08/23 09:34:56;;;;;;;3.17;1.77;;;;;;;18.57;93.08;101489.22;5072208;28;20458;-69
2021/08/23 09:37:24;;;;;;;1.80;1.67;;;;;;;18.48;90.66;101487.66;5072942;28;20441;-69
2021/08/23 09:39:53;;;;;;;1.80;1.50;;;;;;;18.46;90.84;101492.66;5072894;28;20441;-69
2021/08/23 09:42:21;;;;;;;1.83;1.37;;;;;;;18.50;91.75;101479.88;5073049;28;20445;-69
2021/08/23 09:44:49;;;;;;;1.90;1.57;;;;;;;18.61;92.15;101487.41;5071743;28;20477;-70
2021/08/23 09:47:15;;;;;;;4.90;1.73;;;;;;;18.62;88.97;101479.97;5072849;28;20438;-69
2021/08/23 09:49:44;;;;;;;1.40;1.30;;;;;;;18.85;88.17;101497.75;5079654;28;20445;-70
2021/08/23 09:52:13;;;;;;;2.03;1.40;;;;;;;19.09;89.36;101486.09;5073010;28;20452;-70
2021/08/23 09:54:40;;;;;;;2.97;1.23;;;;;;;19.30;87.67;101488.81;5071926;28;20461;-70
2021/08/23 09:57:07;;;;;;;1.83;1.73;;;;;;;19.41;86.80;101487.25;5072743;28;20448;-70
2021/08/23 09:59:38;;;;;;;1.43;1.33;;;;;;;19.56;87.33;101491.28;5072807;28;20440;-70
2021/08/23 10:02:04;;;;;;;1.73;1.53;;;;;;;19.59;87.24;101496.13;5076331;28;20433;-70
2021/08/23 10:04:31;;;;;;;1.33;1.03;;;;;;;19.55;84.71;101502.63;5076034;28;20515;-71
2021/08/23 10:06:59;;;;;;;3.63;1.50;;;;;;;19.59;86.14;101498.06;5076610;28;20485;-70
2021/08/23 10:09:27;;;;;;;5.27;1.40;;;;;;;19.60;85.13;101506.00;5076591;28;20448;-70
2021/08/23 10:11:56;;;;;;;1.23;1.07;;;;;;;19.58;79.25;101505.50;5076477;28;20437;-70
2021/08/23 10:14:23;;;;;;;1.63;1.13;;;;;;;19.76;79.68;101502.59;5075479;28;21216;-71
2021/08/23 10:16:50;;;;;;;2.67;1.63;;;;;;;19.84;80.52;101504.47;5076070;28;20448;-69
2021/08/23 10:19:17;;;;;;;1.37;1.00;;;;;;;19.94;79.60;101508.69;5076284;28;20450;-71
2021/08/23 10:21:45;;;;;;;2.03;1.30;;;;;;;19.87;76.50;101525.75;5075099;28;20441;-71
2021/08/23 10:24:20;;;;;;;3.53;1.40;;;;;;;19.72;77.69;101521.72;5075427;28;20476;-71
2021/08/23 10:26:47;;;;;;;1.20;0.80;;;;;;;19.67;76.43;101524.69;5075879;28;20597;-70
2021/08/23 10:29:16;;;;;;;1.47;1.13;;;;;;;19.72;77.50;101529.16;5076292;28;20445;-69
2021/08/23 10:31:44;;;;;;;1.20;1.00;;;;;;;19.61;75.36;101517.78;5076221;28;20437;-70
2021/08/23 10:34:13;;;;;;;1.17;1.07;;;;;;;19.80;78.35;101528.28;5075315;28;20472;-71
2021/08/23 10:36:41;;;;;;;2.50;1.40;;;;;;;19.70;79.88;101535.00;5075257;28;20953;-70
2021/08/23 10:39:07;;;;;;;2.73;1.10;;;;;;;19.80;77.31;101523.56;5075693;28;20528;-70
2021/08/23 10:41:36;;;;;;;0.97;0.80;;;;;;;19.85;77.25;101528.06;5075666;28;20797;-70
2021/08/23 10:44:05;;;;;;;2.80;1.70;;;;;;;19.86;78.39;101535.94;5075115;28;20488;-71
2021/08/23 10:46:33;;;;;;;2.07;1.10;;;;;;;19.86;76.54;101535.94;5074994;28;20542;-70
2021/08/23 10:49:03;;;;;;;1.80;1.43;;;;;;;19.43;74.69;101533.63;5075557;28;20441;-70
2021/08/23 10:51:32;;;;;;;2.00;1.30;;;;;;;19.37;76.62;101541.28;5075273;28;20953;-70
2021/08/23 10:53:59;;;;;;;2.30;1.20;;;;;;;19.41;77.79;101541.41;5075141;28;20453;-71
2021/08/23 10:56:37;;;;;;;1.70;1.30;;;;;;;19.33;77.54;101536.78;5076506;28;20442;-70
2021/08/23 10:59:14;;;;;;;0.93;0.93;;;;;;;19.32;79.38;101541.47;5074898;28;20475;-70
2021/08/23 11:01:53;;;;;;;2.20;0.87;;;;;;;19.29;79.76;101542.16;5075207;28;20437;-69
2021/08/23 11:04:29;;;;;;;1.97;1.20;;;;;;;19.07;77.88;101543.28;5075365;28;20469;-69
2021/08/23 11:06:56;;;;;;;1.33;1.00;;;;;;;19.00;77.37;101548.53;5075444;28;20489;-69
2021/08/23 11:09:31;;;;;;;2.07;1.20;;;;;;;18.93;78.93;101542.75;5074419;28;20450;-70
2021/08/23 11:12:08;;;;;;;1.53;1.17;;;;;;;18.80;76.78;101550.09;5075099;28;20611;-69
2021/08/23 11:14:46;;;;;;;1.80;1.30;;;;;;;18.66;77.24;101539.34;5074300;28;20480;-72
2021/08/23 11:17:13;;;;;;;2.60;0.97;;;;;;;18.75;79.45;101542.06;5075096;28;20429;-73